createdAt,value
2023-03-08T00:00:21.084Z,97458.78
2023-03-08T00:02:47.954Z,97459.16
2023-03-08T00:05:14.663Z,97457.25
2023-03-08T00:07:41.757Z,97469.91
2023-03-08T00:10:09.581Z,97470.53
2023-03-08T00:12:36.546Z,97462.53
2023-03-08T00:15:03.241Z,97451.16
2023-03-08T00:17:29.747Z,97462.91
2023-03-08T00:19:56.224Z,97457.69
2023-03-08T00:22:24.105Z,97463.41
2023-03-08T00:24:53.803Z,97467.78
2023-03-08T00:27:20.235Z,97468.59
2023-03-08T00:29:46.977Z,97463.31
2023-03-08T00:32:13.523Z,97453.59
2023-03-08T00:34:40.126Z,97454.38
2023-03-08T00:37:06.572Z,97461.31
2023-03-08T00:39:33.365Z,97467.88
2023-03-08T00:41:59.721Z,97467.22
2023-03-08T00:44:26.355Z,97476.78
2023-03-08T00:46:52.790Z,97467.03
2023-03-08T00:49:19.283Z,97477.34
2023-03-08T00:51:47.048Z,97469.41
2023-03-08T00:54:13.639Z,97461.75
2023-03-08T00:56:40.301Z,97459.03
2023-03-08T00:59:06.981Z,97448.09
2023-03-08T01:01:34.762Z,97446.56
2023-03-08T01:04:02.365Z,97435.69
2023-03-08T01:06:29.861Z,97428.16
2023-03-08T01:08:56.339Z,97426.75
2023-03-08T01:11:25.555Z,97427.66
2023-03-08T01:13:53.668Z,97422.16
2023-03-08T01:16:23.246Z,97420.41
2023-03-08T01:18:50.045Z,97421.44
2023-03-08T01:21:18.710Z,97405.94
2023-03-08T01:23:47.052Z,97397.38
2023-03-08T01:26:21.842Z,97395.31
2023-03-08T01:28:49.158Z,97394.66
2023-03-08T01:31:17.960Z,97391.50
2023-03-08T01:33:45.155Z,97398.50
2023-03-08T01:36:14.649Z,97393.50
2023-03-08T01:38:41.837Z,97373.84
2023-03-08T01:41:13.929Z,97368.66
2023-03-08T01:43:40.410Z,97373.63
2023-03-08T01:46:28.161Z,97376.63
2023-03-08T01:48:56.552Z,97377.81
2023-03-08T01:51:34.012Z,97373.88
2023-03-08T01:54:06.820Z,97361.41
2023-03-08T01:56:35.675Z,97346.16
2023-03-08T01:59:03.066Z,97345.44
2023-03-08T02:01:29.872Z,97345.25
2023-03-08T02:03:56.587Z,97334.53
2023-03-08T02:06:23.231Z,97340.44
2023-03-08T02:08:51.306Z,97334.91
2023-03-08T02:11:20.039Z,97336.16
2023-03-08T02:13:47.372Z,97337.63
2023-03-08T02:16:16.390Z,97330.63
2023-03-08T02:18:57.957Z,97340.59
2023-03-08T02:21:25.322Z,97339.41
2023-03-08T02:23:52.114Z,97342.34
2023-03-08T02:26:19.119Z,97346.78
2023-03-08T02:28:46.191Z,97341.97
2023-03-08T02:31:14.326Z,97339.06
2023-03-08T02:33:41.375Z,97340.50
2023-03-08T02:36:08.835Z,97325.69
2023-03-08T02:38:35.695Z,97319.91
2023-03-08T02:41:02.147Z,97316.47
2023-03-08T02:43:31.908Z,97315.09
2023-03-08T02:45:58.653Z,97316.25
2023-03-08T02:48:25.441Z,97319.19
2023-03-08T02:50:52.096Z,97316.19
2023-03-08T02:53:18.514Z,97314.19
2023-03-08T02:55:44.999Z,97308.09
2023-03-08T02:58:11.971Z,97306.34
2023-03-08T03:00:38.792Z,97303.44
2023-03-08T03:03:06.436Z,97303.44
2023-03-08T03:05:33.049Z,97304.91
2023-03-08T03:08:00.592Z,97306.19
2023-03-08T03:10:27.907Z,97292.28
2023-03-08T03:12:54.296Z,97295.75
2023-03-08T03:15:20.891Z,97279.28
2023-03-08T03:17:47.256Z,97275.13
2023-03-08T03:20:15.286Z,97265.19
2023-03-08T03:22:41.744Z,97262.19
2023-03-08T03:25:08.960Z,97257.66
2023-03-08T03:27:35.832Z,97255.75
2023-03-08T03:30:02.715Z,97249.66
2023-03-08T03:32:29.350Z,97239.84
2023-03-08T03:34:55.733Z,97238.84
2023-03-08T03:37:25.835Z,97232.59
2023-03-08T03:39:52.217Z,97235.03
2023-03-08T03:42:19.300Z,97240.28
2023-03-08T03:44:46.082Z,97237.66
2023-03-08T03:47:12.589Z,97232.38
2023-03-08T03:49:39.166Z,97232.75
2023-03-08T03:52:06.568Z,97225.22
2023-03-08T03:54:33.269Z,97223.22
2023-03-08T03:56:59.678Z,97217.16
2023-03-08T03:59:29.091Z,97217.16
2023-03-08T04:01:55.514Z,97210.31
2023-03-08T04:04:22.503Z,97209.97
2023-03-08T04:06:49.079Z,97205.50
2023-03-08T04:09:17.394Z,97200.41
2023-03-08T04:11:44.150Z,97205.06
2023-03-08T04:14:10.616Z,97194.88
2023-03-08T04:16:39.251Z,97197.25
2023-03-08T04:19:09.959Z,97199.25
2023-03-08T04:21:36.641Z,97192.88
2023-03-08T04:24:04.688Z,97195.13
2023-03-08T04:26:32.010Z,97194.03
2023-03-08T04:28:58.431Z,97195.63
2023-03-08T04:31:28.108Z,97198.44
2023-03-08T04:33:58.273Z,97204.88
2023-03-08T04:36:25.505Z,97213.50
2023-03-08T04:38:52.211Z,97207.88
2023-03-08T04:41:19.839Z,97204.78
2023-03-08T04:43:48.105Z,97199.16
2023-03-08T04:46:16.024Z,97199.78
2023-03-08T04:48:43.056Z,97190.97
2023-03-08T04:51:12.952Z,97196.97
2023-03-08T04:53:39.619Z,97194.97
2023-03-08T04:56:06.609Z,97184.63
2023-03-08T04:58:33.194Z,97185.00
2023-03-08T05:00:59.658Z,97183.78
2023-03-08T05:03:26.334Z,97186.25
2023-03-08T05:05:55.902Z,97178.81
2023-03-08T05:08:23.695Z,97182.53
2023-03-08T05:10:55.372Z,97172.00
2023-03-08T05:13:21.872Z,97163.47
2023-03-08T05:15:48.273Z,97153.47
2023-03-08T05:18:14.840Z,97147.25
2023-03-08T05:20:41.531Z,97144.53
2023-03-08T05:23:10.867Z,97133.28
2023-03-08T05:25:44.783Z,97139.66
2023-03-08T05:28:11.375Z,97149.63
2023-03-08T05:30:37.921Z,97157.94
2023-03-08T05:33:04.678Z,97149.91
2023-03-08T05:35:31.158Z,97158.38
2023-03-08T05:37:57.717Z,97156.50
2023-03-08T05:40:24.542Z,97167.19
2023-03-08T05:42:51.170Z,97169.38
2023-03-08T05:45:18.467Z,97165.28
2023-03-08T05:47:44.840Z,97156.03
2023-03-08T05:50:12.024Z,97155.31
2023-03-08T05:52:40.953Z,97134.84
2023-03-08T05:55:07.933Z,97128.66
2023-03-08T05:57:34.386Z,97116.94
2023-03-08T06:00:00.723Z,97116.56
2023-03-08T06:02:28.996Z,97115.00
2023-03-08T06:04:55.389Z,97107.94
2023-03-08T06:07:21.790Z,97111.53
2023-03-08T06:09:48.261Z,97110.28
2023-03-08T06:12:14.647Z,97121.53
2023-03-08T06:14:41.173Z,97115.09
2023-03-08T06:17:07.646Z,97112.91
2023-03-08T06:19:37.081Z,97108.06
2023-03-08T06:22:03.581Z,97105.84
2023-03-08T06:24:31.263Z,97096.78
2023-03-08T06:26:57.741Z,97102.31
2023-03-08T06:29:24.238Z,97090.53
2023-03-08T06:31:50.707Z,97085.69
2023-03-08T06:34:18.848Z,97078.63
2023-03-08T06:36:45.381Z,97076.22
2023-03-08T06:39:11.770Z,97079.94
2023-03-08T06:41:38.466Z,97078.75
2023-03-08T06:44:10.180Z,97078.16
2023-03-08T06:46:36.627Z,97075.78
2023-03-08T06:49:03.323Z,97066.06
2023-03-08T06:51:29.757Z,97060.00
2023-03-08T06:53:56.236Z,97048.50
2023-03-08T06:56:22.611Z,97035.34
2023-03-08T06:58:49.129Z,97035.38
2023-03-08T07:01:15.812Z,97024.06
2023-03-08T07:03:42.384Z,97019.44
2023-03-08T07:06:09.952Z,97018.47
2023-03-08T07:08:37.536Z,97013.81
2023-03-08T07:11:04.730Z,97004.91
2023-03-08T07:13:31.232Z,97002.91
2023-03-08T07:15:57.872Z,96996.22
2023-03-08T07:18:25.112Z,96982.41
2023-03-08T07:21:00.584Z,96981.19
2023-03-08T07:23:27.330Z,96975.72
2023-03-08T07:25:53.916Z,96971.84
2023-03-08T07:31:02.272Z,96975.56
2023-03-08T07:33:28.696Z,96970.69
2023-03-08T07:35:55.159Z,96964.78
2023-03-08T07:38:21.980Z,96968.25
2023-03-08T07:40:54.659Z,96966.06
2023-03-08T07:43:21.525Z,96954.88
2023-03-08T07:45:48.044Z,96961.81
2023-03-08T07:48:14.901Z,96953.72
2023-03-08T07:50:41.459Z,96946.78
2023-03-08T07:53:09.395Z,96943.94
2023-03-08T07:55:37.337Z,96939.47
2023-03-08T07:58:03.875Z,96939.06
2023-03-08T08:00:30.674Z,96935.63
2023-03-08T08:02:57.104Z,96936.41
2023-03-08T08:05:24.243Z,96927.25
2023-03-08T08:07:50.966Z,96921.78
2023-03-08T08:10:17.599Z,96925.44
2023-03-08T08:12:44.091Z,96927.06
2023-03-08T08:15:11.151Z,96905.50
2023-03-08T08:17:37.598Z,96904.06
2023-03-08T08:20:04.430Z,96882.13
2023-03-08T08:22:30.869Z,96870.13
2023-03-08T08:24:57.338Z,96877.63
2023-03-08T08:27:24.420Z,96851.56
2023-03-08T08:29:52.516Z,96856.00
2023-03-08T08:32:20.589Z,96846.84
2023-03-08T08:34:47.174Z,96847.38
2023-03-08T08:37:13.728Z,96848.59
2023-03-08T08:39:40.236Z,96832.25
2023-03-08T08:42:07.139Z,96822.09
2023-03-08T08:44:34.200Z,96823.63
2023-03-08T08:47:01.883Z,96816.59
2023-03-08T08:49:28.497Z,96818.72
2023-03-08T08:51:54.886Z,96810.09
2023-03-08T08:54:22.885Z,96812.59
2023-03-08T08:56:49.356Z,96815.28
2023-03-08T08:59:15.718Z,96806.06
2023-03-08T09:01:42.183Z,96811.03
2023-03-08T09:04:09.217Z,96820.31
2023-03-08T09:06:35.840Z,96808.81
2023-03-08T09:09:02.385Z,96814.59
2023-03-08T09:11:28.970Z,96811.09
2023-03-08T09:13:56.077Z,96811.03
2023-03-08T09:16:29.519Z,96800.16
2023-03-08T09:18:57.620Z,96796.56
2023-03-08T09:21:26.189Z,96808.94
2023-03-08T09:23:52.797Z,96811.78
2023-03-08T09:26:19.409Z,96826.28
2023-03-08T09:28:46.519Z,96820.41
2023-03-08T09:31:16.274Z,96818.31
2023-03-08T09:33:45.900Z,96808.22
2023-03-08T09:36:12.968Z,96803.66
2023-03-08T09:38:39.870Z,96796.06
2023-03-08T09:41:17.620Z,96799.19
2023-03-08T09:43:51.989Z,96782.81
2023-03-08T09:46:27.382Z,96776.88
2023-03-08T09:48:55.914Z,96775.13
2023-03-08T09:51:27.038Z,96773.97
2023-03-08T09:54:02.555Z,96776.50
2023-03-08T09:56:41.385Z,96789.31
2023-03-08T09:59:17.441Z,96760.31
2023-03-08T10:01:54.158Z,96761.66
2023-03-08T10:04:27.356Z,96767.06
2023-03-08T10:07:20.207Z,96756.78
2023-03-08T10:10:02.381Z,96726.84
2023-03-08T10:12:43.728Z,96731.19
2023-03-08T10:15:19.808Z,96732.66
2023-03-08T10:17:58.003Z,96712.75
2023-03-08T10:20:28.154Z,96722.47
2023-03-08T10:22:59.466Z,96714.34
2023-03-08T10:25:34.398Z,96721.28
2023-03-08T10:28:03.404Z,96710.69
2023-03-08T10:30:36.242Z,96717.03
2023-03-08T10:33:08.615Z,96726.16
2023-03-08T10:35:52.638Z,96718.44
2023-03-08T10:38:19.328Z,96714.13
2023-03-08T10:40:46.771Z,96707.09
2023-03-08T10:43:40.448Z,96701.94
2023-03-08T10:46:18.735Z,96701.94
2023-03-08T10:48:51.594Z,96696.53
2023-03-08T10:51:28.829Z,96698.97
2023-03-08T10:54:00.620Z,96701.38
2023-03-08T10:56:40.438Z,96681.41
2023-03-08T10:59:17.949Z,96685.19
2023-03-08T11:01:54.823Z,96686.25
2023-03-08T11:04:27.585Z,96680.69
2023-03-08T11:06:54.560Z,96685.63
2023-03-08T11:09:27.066Z,96676.19
2023-03-08T11:11:55.639Z,96688.19
2023-03-08T11:14:26.127Z,96675.13
2023-03-08T11:17:01.083Z,96682.53
2023-03-08T11:19:34.872Z,96683.19
2023-03-08T11:22:21.473Z,96673.00
2023-03-08T11:25:02.190Z,96674.28
2023-03-08T11:28:05.525Z,96692.75
2023-03-08T11:33:59.049Z,96706.16
2023-03-08T11:36:50.884Z,96740.78
2023-03-08T11:39:26.891Z,96747.56
2023-03-08T11:42:03.889Z,96751.00
2023-03-08T11:45:07.465Z,96752.34
2023-03-08T11:47:56.589Z,96747.53
2023-03-08T11:50:37.673Z,96706.94
2023-03-08T11:53:33.549Z,96700.75
2023-03-08T11:56:35.253Z,96684.81
2023-03-08T11:59:01.950Z,96677.88
2023-03-08T12:02:09.401Z,96677.50
2023-03-08T12:04:58.005Z,96675.31
2023-03-08T12:07:34.002Z,96668.97
2023-03-08T12:10:12.888Z,96664.56
2023-03-08T12:12:49.731Z,96665.34
2023-03-08T12:15:33.906Z,96675.78
2023-03-08T12:18:15.922Z,96668.09
2023-03-08T12:20:45.393Z,96668.69
2023-03-08T12:24:03.808Z,96675.13
2023-03-08T12:26:39.954Z,96675.19
2023-03-08T12:29:28.016Z,96662.13
2023-03-08T12:31:54.663Z,96665.59
2023-03-08T12:34:36.497Z,96678.16
2023-03-08T12:37:04.343Z,96665.13
2023-03-08T12:39:36.773Z,96672.88
2023-03-08T12:42:12.069Z,96667.06
2023-03-08T12:44:39.627Z,96660.72
2023-03-08T12:47:15.093Z,96662.91
2023-03-08T12:49:49.901Z,96668.34
2023-03-08T12:52:19.435Z,96656.91
2023-03-08T12:54:57.414Z,96663.94
2023-03-08T12:57:32.802Z,96662.41
2023-03-08T13:00:08.515Z,96641.56
2023-03-08T13:02:35.753Z,96665.19
2023-03-08T13:05:36.612Z,96651.63
2023-03-08T13:08:15.495Z,96644.19
2023-03-08T13:10:59.243Z,96653.88
2023-03-08T13:13:46.968Z,96659.25
2023-03-08T13:16:29.993Z,96664.09
2023-03-08T13:19:17.359Z,96661.13
2023-03-08T13:22:11.295Z,96653.78
2023-03-08T13:24:47.533Z,96672.22
2023-03-08T13:27:26.769Z,96682.69
2023-03-08T13:29:53.588Z,96672.47
2023-03-08T13:32:24.045Z,96675.09
2023-03-08T13:35:02.313Z,96677.75
2023-03-08T13:37:30.317Z,96674.47
2023-03-08T13:39:59.671Z,96667.47
2023-03-08T13:42:28.819Z,96673.63
2023-03-08T13:45:10.720Z,96687.00
2023-03-08T13:47:38.855Z,96685.34
2023-03-08T13:50:18.108Z,96688.06
2023-03-08T13:52:45.015Z,96671.22
2023-03-08T13:55:21.404Z,96673.63
2023-03-08T13:57:51.219Z,96659.97
2023-03-08T14:00:28.920Z,96661.84
2023-03-08T14:02:56.326Z,96668.63
2023-03-08T14:05:27.554Z,96654.22
2023-03-08T14:07:59.010Z,96652.63
2023-03-08T14:10:32.422Z,96642.97
2023-03-08T14:12:59.250Z,96621.88
2023-03-08T14:15:26.009Z,96622.44
2023-03-08T14:17:53.282Z,96617.34
2023-03-08T14:20:22.432Z,96609.59
2023-03-08T14:22:52.546Z,96608.25
2023-03-08T14:25:28.212Z,96597.53
2023-03-08T14:27:55.432Z,96606.63
2023-03-08T14:30:28.322Z,96610.38
2023-03-08T14:33:15.962Z,96620.00
2023-03-08T14:35:51.735Z,96608.00
2023-03-08T14:38:24.247Z,96604.78
2023-03-08T14:40:51.423Z,96597.81
2023-03-08T14:43:21.744Z,96598.06
2023-03-08T14:46:06.131Z,96600.22
2023-03-08T14:48:35.380Z,96590.59
2023-03-08T14:51:17.183Z,96589.84
2023-03-08T14:53:43.712Z,96587.94
2023-03-08T14:56:17.249Z,96594.59
2023-03-08T14:58:49.668Z,96583.66
2023-03-08T15:01:32.143Z,96580.72
2023-03-08T15:03:59.484Z,96574.84
2023-03-08T15:06:32.562Z,96582.63
2023-03-08T15:09:05.514Z,96597.63
2023-03-08T15:11:32.161Z,96599.47
2023-03-08T15:14:04.300Z,96591.69
2023-03-08T15:16:33.187Z,96594.34
2023-03-08T15:18:59.761Z,96593.59
2023-03-08T15:21:30.924Z,96581.00
2023-03-08T15:23:58.985Z,96592.25
2023-03-08T15:26:29.038Z,96589.00
2023-03-08T15:28:55.681Z,96591.16
2023-03-08T15:31:22.199Z,96580.16
2023-03-08T15:33:49.929Z,96583.91
2023-03-08T15:36:19.013Z,96578.28
2023-03-08T15:38:46.996Z,96578.00
2023-03-08T15:41:15.236Z,96571.88
2023-03-08T15:43:41.974Z,96559.31
2023-03-08T15:46:13.305Z,96568.13
2023-03-08T15:48:42.019Z,96568.66
2023-03-08T15:51:19.337Z,96555.00
2023-03-08T15:53:46.417Z,96553.91
2023-03-08T15:56:13.055Z,96557.16
2023-03-08T15:58:40.128Z,96560.06
2023-03-08T16:01:07.776Z,96562.75
2023-03-08T16:03:36.588Z,96563.28
2023-03-08T16:06:03.595Z,96558.19
2023-03-08T16:08:30.209Z,96566.72
2023-03-08T16:10:56.706Z,96553.34
2023-03-08T16:13:23.164Z,96551.25
2023-03-08T16:15:49.961Z,96560.31
2023-03-08T16:18:16.629Z,96562.47
2023-03-08T16:20:43.274Z,96563.00
2023-03-08T16:23:10.016Z,96571.31
2023-03-08T16:25:36.486Z,96570.22
2023-03-08T16:28:03.011Z,96570.72
2023-03-08T16:30:29.552Z,96560.53
2023-03-08T16:32:57.133Z,96568.81
2023-03-08T16:35:23.634Z,96593.34
2023-03-08T16:37:52.952Z,96608.84
2023-03-08T16:40:19.512Z,96600.03
2023-03-08T16:42:47.289Z,96621.63
2023-03-08T16:45:15.802Z,96628.91
2023-03-08T16:47:43.944Z,96612.84
2023-03-08T16:50:12.868Z,96618.72
2023-03-08T16:52:39.675Z,96657.28
2023-03-08T16:55:06.866Z,96659.34
2023-03-08T16:57:33.311Z,96702.53
2023-03-08T17:00:00.024Z,96745.44
2023-03-08T17:02:26.482Z,96769.69
2023-03-08T17:04:53.548Z,96801.97
2023-03-08T17:07:19.914Z,96834.66
2023-03-08T17:09:46.506Z,96877.28
2023-03-08T17:12:14.173Z,96890.56
2023-03-08T17:14:40.574Z,96899.56
2023-03-08T17:17:07.306Z,96910.00
2023-03-08T17:19:35.471Z,96914.50
2023-03-08T17:22:02.174Z,96934.47
2023-03-08T17:24:28.709Z,96947.25
2023-03-08T17:26:55.229Z,96960.53
2023-03-08T17:29:22.100Z,96981.56
2023-03-08T17:31:48.934Z,96987.09
2023-03-08T17:34:17.572Z,96993.97
2023-03-08T17:36:44.148Z,96985.22
2023-03-08T17:39:10.742Z,96986.44
2023-03-08T17:41:38.652Z,97000.28
2023-03-08T17:44:06.026Z,96991.53
2023-03-08T17:46:32.775Z,96990.19
2023-03-08T17:48:59.332Z,96990.09
2023-03-08T17:51:28.635Z,96995.91
2023-03-08T17:53:55.538Z,96983.69
2023-03-08T17:56:25.059Z,96974.16
2023-03-08T17:58:51.897Z,96976.16
2023-03-08T18:01:26.583Z,96989.41
2023-03-08T18:03:55.709Z,96986.75
2023-03-08T18:06:40.036Z,96981.72
2023-03-08T18:09:09.914Z,96985.09
2023-03-08T18:11:36.565Z,96987.91
2023-03-08T18:14:13.472Z,96979.53
2023-03-08T18:16:41.134Z,96971.63
2023-03-08T18:19:07.629Z,96970.59
2023-03-08T18:21:36.023Z,96949.53
2023-03-08T18:24:03.527Z,96955.13
2023-03-08T18:26:29.924Z,96956.19
2023-03-08T18:28:56.555Z,96933.53
2023-03-08T18:31:25.064Z,96934.81
2023-03-08T18:33:54.595Z,96940.28
2023-03-08T18:36:21.480Z,96928.22
2023-03-08T18:38:48.439Z,96944.66
2023-03-08T18:41:23.288Z,96932.34
2023-03-08T18:43:50.239Z,96961.38
2023-03-08T18:46:17.545Z,96946.91
2023-03-08T18:48:44.487Z,96934.06
2023-03-08T18:51:11.302Z,96939.66
2023-03-08T18:53:38.054Z,96947.56
2023-03-08T18:56:05.218Z,96950.97
2023-03-08T18:58:31.974Z,96955.81
2023-03-08T19:00:58.625Z,96968.97
2023-03-08T19:03:29.455Z,96968.44
2023-03-08T19:05:56.440Z,96971.47
2023-03-08T19:08:23.452Z,96988.69
2023-03-08T19:10:49.992Z,96969.50
2023-03-08T19:13:17.900Z,96949.88
2023-03-08T19:15:44.418Z,96950.81
2023-03-08T19:18:11.042Z,96951.34
2023-03-08T19:20:40.197Z,96966.97
2023-03-08T19:23:07.314Z,96958.75
2023-03-08T19:25:46.090Z,96962.97
2023-03-08T19:28:14.220Z,96962.34
2023-03-08T19:30:53.587Z,96953.28
2023-03-08T19:33:30.391Z,96943.66
2023-03-08T19:35:58.274Z,96979.19
2023-03-08T19:38:27.790Z,97005.69
2023-03-08T19:40:54.522Z,97030.03
2023-03-08T19:43:21.800Z,97043.19
2023-03-08T19:45:50.937Z,97056.63
2023-03-08T19:48:18.261Z,97074.03
2023-03-08T19:50:45.962Z,97071.59
2023-03-08T19:53:12.521Z,97078.56
2023-03-08T19:55:48.284Z,97068.25
2023-03-08T19:58:14.979Z,97057.44
2023-03-08T20:00:41.724Z,97066.25
2023-03-08T20:03:08.282Z,97063.47
2023-03-08T20:05:40.729Z,97059.91
2023-03-08T20:08:08.143Z,97065.44
2023-03-08T20:10:35.508Z,97070.09
2023-03-08T20:13:02.414Z,97071.38
2023-03-08T20:15:29.391Z,97073.44
2023-03-08T20:17:56.245Z,97086.91
2023-03-08T20:20:22.977Z,97080.88
2023-03-08T20:22:49.462Z,97077.63
2023-03-08T20:25:16.202Z,97075.78
2023-03-08T20:27:43.356Z,97068.56
2023-03-08T20:30:11.783Z,97052.13
2023-03-08T20:32:38.594Z,97046.91
2023-03-08T20:35:06.325Z,97051.44
2023-03-08T20:37:33.114Z,97061.16
2023-03-08T20:39:59.933Z,97064.91
2023-03-08T20:42:27.024Z,97058.03
2023-03-08T20:44:53.707Z,97047.97
2023-03-08T20:47:20.873Z,97058.50
2023-03-08T20:49:47.381Z,97043.56
2023-03-08T20:52:14.123Z,97027.34
2023-03-08T20:54:40.688Z,97035.31
2023-03-08T20:57:07.034Z,97030.25
2023-03-08T20:59:33.511Z,97021.66
2023-03-08T21:01:59.928Z,97009.41
2023-03-08T21:04:26.664Z,97002.66
2023-03-08T21:06:53.101Z,96987.50
2023-03-08T21:09:19.568Z,96969.63
2023-03-08T21:11:46.068Z,96966.63
2023-03-08T21:14:12.841Z,96983.09
2023-03-08T21:16:39.611Z,96966.75
2023-03-08T21:19:06.667Z,96966.16
2023-03-08T21:21:36.307Z,96952.63
2023-03-08T21:24:12.473Z,96951.78
2023-03-08T21:26:39.051Z,96943.38
2023-03-08T21:29:08.853Z,96927.50
2023-03-08T21:31:39.205Z,96906.31
2023-03-08T21:34:06.712Z,96905.28
2023-03-08T21:36:34.284Z,96893.25
2023-03-08T21:39:00.812Z,96886.06
2023-03-08T21:41:34.556Z,96861.59
2023-03-08T21:44:05.323Z,96840.00
2023-03-08T21:46:32.342Z,96847.63
2023-03-08T21:48:58.979Z,96850.16
2023-03-08T21:51:25.532Z,96849.09
2023-03-08T21:53:53.366Z,96856.41
2023-03-08T21:56:20.234Z,96856.41
2023-03-08T21:58:46.687Z,96860.66
2023-03-08T22:01:43.380Z,96855.13
2023-03-08T22:04:09.979Z,96853.25
2023-03-08T22:06:36.439Z,96850.59
2023-03-08T22:09:05.039Z,96835.63
2023-03-08T22:11:31.817Z,96840.16
2023-03-08T22:14:00.026Z,96837.50
2023-03-08T22:16:28.688Z,96837.50
2023-03-08T22:18:57.933Z,96815.78
2023-03-08T22:21:24.720Z,96802.13
2023-03-08T22:23:57.200Z,96792.91
2023-03-08T22:26:24.984Z,96792.91
2023-03-08T22:28:53.237Z,96775.69
2023-03-08T22:31:24.477Z,96776.03
2023-03-08T22:33:52.562Z,96769.88
2023-03-08T22:36:20.009Z,96744.78
2023-03-08T22:38:46.701Z,96727.56
2023-03-08T22:41:22.419Z,96731.09
2023-03-08T22:43:49.687Z,96728.09
2023-03-08T22:46:22.099Z,96732.53
2023-03-08T22:48:50.702Z,96720.75
2023-03-08T22:51:19.584Z,96703.97
2023-03-08T22:53:46.115Z,96675.94
2023-03-08T22:56:25.662Z,96671.56
2023-03-08T22:58:52.525Z,96666.25
2023-03-08T23:01:21.583Z,96652.38
2023-03-08T23:03:48.811Z,96640.09
2023-03-08T23:06:18.854Z,96635.81
2023-03-08T23:08:46.455Z,96628.78
2023-03-08T23:11:14.069Z,96610.16
2023-03-08T23:13:40.700Z,96603.44
2023-03-08T23:16:08.762Z,96598.38
2023-03-08T23:18:35.684Z,96585.06
2023-03-08T23:21:07.341Z,96575.91
2023-03-08T23:23:36.368Z,96567.59
2023-03-08T23:26:05.502Z,96554.06
2023-03-08T23:28:33.076Z,96534.19
2023-03-08T23:31:02.072Z,96526.47
2023-03-08T23:33:28.848Z,96529.03
2023-03-08T23:35:55.899Z,96520.00
2023-03-08T23:38:22.592Z,96520.47
2023-03-08T23:40:49.022Z,96519.94
2023-03-08T23:43:15.426Z,96508.44
2023-03-08T23:45:41.877Z,96492.25
2023-03-08T23:48:08.265Z,96495.50
2023-03-08T23:50:34.718Z,96483.69
2023-03-08T23:53:01.119Z,96475.47
2023-03-08T23:55:27.517Z,96461.38
2023-03-08T23:57:54.175Z,96457.94
